Aeroporto :
LOGIN :

Iscrizione | Disclaimer

   EN    FR    IT 

 










Sommario :    VFR   VFR Marginale   IFR   IFR Intensivo   IFR Molto Intensivo
Visibilità : 
Base nubi : 
>= 8 km
>= 3000ft
5 / 8 km
1000 / 3000 ft
1500m / 5 km
500 / 1000 ft
800 / 1500m
200 / 500 ft
< 800m
< 200 ft
Simboli :   Temporali  Nebbia  Neve Forte  Precipitazioni Forti  Vento > 20 kt
SIGMETs :   Varie  Temporali  Ghiacco  Turbolenza  Onda orograficha  Ceneri Vulcaniche






- Altitudine del aeroporto : 2595 ft
- Codice IATA : SLM


LESA - Salamanca Matacan

ULTIMO METAR :
  • 020600Z AUTO 00000KT CAVOK 13/11 Q1017

METARs OBSOLETI :
  • 020530Z AUTO 00000KT CAVOK 13/12 Q1017
  • 020500Z AUTO 00000KT CAVOK 13/12 Q1017
  • 020430Z AUTO 00000KT CAVOK 14/12 Q1016
  • 020400Z AUTO 00000KT CAVOK 14/12 Q1016
  • 020330Z AUTO 00000KT CAVOK 14/12 Q1016

TAF TAF LESA
Valido dal 02 a 06 ore il 03 a 06 ore UTC


020500Z 0206/0306 VRB05KT CAVOK TX29/0216Z TN13/0305Z
TEMPO 0215/0306 26010KT
PROB40
TEMPO 0303/0306 BKN010



MetMap, La meteo Aeronautica in un colpo d'occhio ! - Copyright ORBIFLY Dicembre 2007 - Disclaimer

ORBIFLY MET'MAP TEAM :

Programmazione e sviluppo : Alexandra Zaïnal
Concezione : Baudouin d'Aumeries
Aiuto per la programmazione : Marc-Olivier Méhu
Supporto tecnico e logistico : Manuel Goepfert
Aiuto per la traduzione : Arnaldo La Scala

Contatto : metmap@orbifly.com




FONTI E CREDITI :

   NOAA